Pagina principale
METAR-TAF:

METAR-TAF

Aeroporti :

Ancona, Italia

latitudine: 43-37N, longitudine: 013-22E, altezza: 12 m

Osservazione

Il bollettino è stato emesso 1 ora e 1 minuti fa, alle 17:50 UTC
Vento 3 kt da nord-ovest, variando fra ovest e nord/nord-ovest
Temperature 14°C
Umidità 77%
Pressione 1027 hPa
Visibilità 10 km o più
nessuna nube inferiore a 1500 m e nessun cumulonembo

METAR: LIPY 191750Z 31003KT 270V340 CAVOK 14/10 Q1027

Ora: 20:51 (18:51 UTC)

Previsione

Il bollettino è stato emesso 1 ora e 51 minuti fa, alle 17:00 UTC
Previsione valida dal 19 alle 18 UTC al 20 alle 18 UTC
Vento 7 kt da sud-ovest
Visibilità 10 km o più
nessuna nube inferiore a 1500 m e nessun cumulonembo
Evoluzione graduale
dal 20 alle 08 UTC al 20 alle 10 UTC
Vento 10 kt da nord

TAF: LIPY 191700Z 1918/2018 22007KT CAVOK BECMG 2008/2010 35010KT

Osservazioni e previsioni meteorologiche di più di 4000 aeroporti (messaggi METAR e TAF).

Le stazioni disponibili sono rappresentate dai dischi gialli e rossi sulla carta.

Puntare il mouse per vedere il nome della stazione.

Clicca sopra per visualizzare le osservazioni e previsioni meteorologiche.

Per cambiare la mappa : fare clic sui pulsanti verdi con una croce nera per ingrandire, il pulsante verde con un trattino per diminuire, o sulla freccia verde per le mappe adiacenti.


METAR-TAF: